createdAt,value
2023-05-02T00:03:19.736Z,21.60
2023-05-02T00:08:41.451Z,20.50
2023-05-02T00:14:03.221Z,19.00
2023-05-02T00:19:25.214Z,18.30
2023-05-02T00:24:49.355Z,17.20
2023-05-02T00:30:12.248Z,15.40
2023-05-02T00:35:34.512Z,18.60
2023-05-02T00:40:56.748Z,16.60
2023-05-02T00:46:18.584Z,21.00
2023-05-02T00:51:40.801Z,19.40
2023-05-02T00:57:03.074Z,15.60
2023-05-02T01:02:41.124Z,12.80
2023-05-02T01:08:36.166Z,14.10
2023-05-02T01:13:59.252Z,13.60
2023-05-02T01:19:33.562Z,13.30
2023-05-02T01:25:16.580Z,14.40
2023-05-02T01:30:42.871Z,15.20
2023-05-02T01:36:06.279Z,12.70
2023-05-02T01:41:30.592Z,12.20
2023-05-02T01:46:55.198Z,11.40
2023-05-02T01:52:17.866Z,11.70
2023-05-02T01:57:41.300Z,9.10
2023-05-02T02:03:07.498Z,11.00
2023-05-02T02:08:29.567Z,10.20
2023-05-02T02:13:56.432Z,13.50
2023-05-02T02:19:18.548Z,10.50
2023-05-02T02:24:41.979Z,14.00
2023-05-02T02:30:05.313Z,10.40
2023-05-02T02:35:32.099Z,12.30
2023-05-02T02:40:56.695Z,11.50
2023-05-02T02:46:44.044Z,18.40
2023-05-02T02:52:17.448Z,14.20
2023-05-02T02:57:57.813Z,12.40
2023-05-02T03:03:21.053Z,10.30
2023-05-02T03:08:44.647Z,14.00
2023-05-02T03:14:09.101Z,11.80
2023-05-02T03:19:31.482Z,13.80
2023-05-02T03:24:54.346Z,10.60
2023-05-02T03:30:17.500Z,13.80
2023-05-02T03:35:39.719Z,14.40
2023-05-02T03:41:01.486Z,14.10
2023-05-02T03:46:23.607Z,12.20
2023-05-02T03:51:47.006Z,10.80
2023-05-02T03:57:09.936Z,10.10
2023-05-02T04:02:32.142Z,11.20
2023-05-02T04:07:56.167Z,13.60
2023-05-02T04:13:19.040Z,13.90
2023-05-02T04:18:43.878Z,12.60
2023-05-02T04:24:06.043Z,11.60
2023-05-02T04:29:28.042Z,12.00
2023-05-02T04:34:50.769Z,10.90
2023-05-02T04:40:14.783Z,10.20
2023-05-02T04:45:39.652Z,15.70
2023-05-02T04:51:07.094Z,15.10
2023-05-02T04:56:29.266Z,11.70
2023-05-02T05:01:51.087Z,17.20
2023-05-02T05:07:13.997Z,12.70
2023-05-02T05:12:38.954Z,11.30
2023-05-02T05:18:00.486Z,10.80
2023-05-02T05:23:22.588Z,12.70
2023-05-02T05:28:44.473Z,15.20
2023-05-02T05:34:07.291Z,11.10
2023-05-02T05:39:29.274Z,15.70
2023-05-02T05:44:52.793Z,8.50
2023-05-02T05:50:14.940Z,12.20
2023-05-02T05:55:42.176Z,9.60
2023-05-02T06:01:05.422Z,10.70
2023-05-02T06:06:27.780Z,10.30
2023-05-02T06:11:49.385Z,7.60
2023-05-02T06:17:11.430Z,9.80
2023-05-02T06:22:33.342Z,6.80
2023-05-02T06:27:56.328Z,7.50
2023-05-02T06:33:18.395Z,10.70
2023-05-02T06:38:39.832Z,8.80
2023-05-02T06:44:02.709Z,7.10
2023-05-02T06:49:24.287Z,8.20
2023-05-02T06:54:46.257Z,7.00
2023-05-02T07:00:09.457Z,7.30
2023-05-02T07:05:31.582Z,3.80
2023-05-02T07:10:53.712Z,3.60
2023-05-02T07:16:15.356Z,5.00
2023-05-02T07:21:37.129Z,3.50
2023-05-02T07:26:59.102Z,4.20
2023-05-02T07:32:22.581Z,4.50
2023-05-02T07:37:44.465Z,2.70
2023-05-02T07:43:06.393Z,3.30
2023-05-02T07:48:28.134Z,4.50
2023-05-02T07:53:58.719Z,3.70
2023-05-02T08:04:56.725Z,3.20
2023-05-02T08:10:18.822Z,3.60
2023-05-02T08:15:42.928Z,4.20
2023-05-02T08:21:05.312Z,4.10
2023-05-02T08:26:27.522Z,4.20
2023-05-02T08:31:49.747Z,5.20
2023-05-02T08:37:12.392Z,7.40
2023-05-02T08:42:34.945Z,5.30
2023-05-02T08:47:56.795Z,4.00
2023-05-02T08:53:18.876Z,4.90
2023-05-02T08:58:42.019Z,5.20
2023-05-02T09:04:04.936Z,8.80
2023-05-02T09:09:27.182Z,7.10
2023-05-02T09:15:09.479Z,10.00
2023-05-02T09:20:41.132Z,4.10
2023-05-02T09:26:11.941Z,6.50
2023-05-02T09:37:07.204Z,6.60
2023-05-02T09:42:33.097Z,6.50
2023-05-02T09:47:55.030Z,6.80
2023-05-02T09:53:16.944Z,6.60
2023-05-02T09:58:39.732Z,8.10
2023-05-02T10:04:01.643Z,8.00
2023-05-02T10:09:24.380Z,7.00
2023-05-02T10:15:04.744Z,5.90
2023-05-02T10:20:32.280Z,6.00
2023-05-02T10:25:54.865Z,6.20
2023-05-02T10:31:18.752Z,6.30
2023-05-02T10:36:48.407Z,14.20
2023-05-02T10:42:13.493Z,6.90
2023-05-02T10:47:35.818Z,7.10
2023-05-02T10:52:59.022Z,6.70
2023-05-02T10:58:21.592Z,7.00
2023-05-02T11:04:11.350Z,6.70
2023-05-02T11:09:33.752Z,7.80
2023-05-02T11:14:58.526Z,7.30
2023-05-02T11:20:20.672Z,8.70
2023-05-02T11:25:49.058Z,11.20
2023-05-02T11:31:28.720Z,9.90
2023-05-02T11:36:50.487Z,8.60
2023-05-02T11:42:30.126Z,7.80
2023-05-02T11:47:51.788Z,6.60
2023-05-02T11:53:14.940Z,7.90
2023-05-02T11:58:36.570Z,6.50
2023-05-02T12:04:05.660Z,5.20
2023-05-02T12:09:31.168Z,6.30
2023-05-02T12:14:54.511Z,14.00
2023-05-02T12:20:17.637Z,6.20
2023-05-02T12:25:43.091Z,5.00
2023-05-02T12:31:11.250Z,4.60
2023-05-02T12:36:34.472Z,5.80
2023-05-02T12:41:56.094Z,4.50
2023-05-02T12:47:22.939Z,3.50
2023-05-02T12:53:00.435Z,3.60
2023-05-02T12:58:25.564Z,4.60
2023-05-02T13:03:48.466Z,3.10
2023-05-02T13:09:10.521Z,5.30
2023-05-02T13:14:32.495Z,6.90
2023-05-02T13:20:00.744Z,6.10
2023-05-02T13:25:27.058Z,3.10
2023-05-02T13:30:50.606Z,5.10
2023-05-02T13:36:12.310Z,4.00
2023-05-02T13:41:35.343Z,3.70
2023-05-02T13:46:59.090Z,4.00
2023-05-02T13:52:21.079Z,4.10
2023-05-02T13:57:42.905Z,4.00
2023-05-02T14:03:05.321Z,5.90
2023-05-02T14:08:27.974Z,4.30
2023-05-02T14:13:49.824Z,3.20
2023-05-02T14:19:11.830Z,2.70
2023-05-02T14:24:34.058Z,4.20
2023-05-02T14:29:55.785Z,4.90
2023-05-02T14:35:17.500Z,4.50
2023-05-02T14:40:39.356Z,3.50
2023-05-02T14:46:04.141Z,6.40
2023-05-02T14:51:26.615Z,3.40
2023-05-02T14:56:50.219Z,6.80
2023-05-02T15:02:12.377Z,4.90
2023-05-02T15:07:35.917Z,4.40
2023-05-02T15:12:58.247Z,5.60
2023-05-02T15:18:20.618Z,5.70
2023-05-02T15:23:44.812Z,7.90
2023-05-02T15:29:07.121Z,5.90
2023-05-02T15:34:28.889Z,4.20
2023-05-02T15:39:50.909Z,7.70
2023-05-02T15:45:15.754Z,10.10
2023-05-02T15:50:37.938Z,8.30
2023-05-02T15:56:00.924Z,8.40
2023-05-02T16:01:24.335Z,13.40
2023-05-02T16:06:46.831Z,7.00
2023-05-02T16:12:08.818Z,11.50
2023-05-02T16:17:30.564Z,10.80
2023-05-02T16:22:52.455Z,15.80
2023-05-02T16:28:14.587Z,10.90
2023-05-02T16:33:40.732Z,7.70
2023-05-02T16:39:02.723Z,5.90
2023-05-02T16:44:24.792Z,21.90
2023-05-02T16:49:47.527Z,13.10
2023-05-02T16:55:14.272Z,12.40
2023-05-02T17:00:36.281Z,20.10
2023-05-02T17:06:00.423Z,13.00
2023-05-02T17:11:22.818Z,15.00
2023-05-02T17:16:44.378Z,14.90
2023-05-02T17:22:06.889Z,13.30
2023-05-02T17:27:28.797Z,14.10
2023-05-02T17:32:50.447Z,25.10
2023-05-02T17:38:12.523Z,27.50
2023-05-02T17:43:34.053Z,24.30
2023-05-02T17:48:58.883Z,24.30
2023-05-02T17:54:21.074Z,31.30
2023-05-02T17:59:42.951Z,40.40
2023-05-02T18:05:06.904Z,34.60
2023-05-02T18:10:29.090Z,32.90
2023-05-02T18:15:57.736Z,25.40
2023-05-02T18:21:23.432Z,47.00
2023-05-02T18:26:48.552Z,24.00
2023-05-02T18:32:10.777Z,28.00
2023-05-02T18:37:34.740Z,33.80
2023-05-02T18:42:56.701Z,28.60
2023-05-02T18:48:18.591Z,37.10
2023-05-02T18:53:40.502Z,40.00
2023-05-02T18:59:02.225Z,24.40
2023-05-02T19:04:24.369Z,20.60
2023-05-02T19:09:46.207Z,32.80
2023-05-02T19:15:08.824Z,44.50
2023-05-02T19:20:31.050Z,23.50
2023-05-02T19:25:52.904Z,23.40
2023-05-02T19:31:20.010Z,24.60
2023-05-02T19:36:41.857Z,36.30
2023-05-02T19:42:03.588Z,43.40
2023-05-02T19:47:27.564Z,39.10
2023-05-02T19:52:53.160Z,44.70
2023-05-02T19:58:14.907Z,48.80
2023-05-02T20:03:37.060Z,45.80
2023-05-02T20:08:58.856Z,36.10
2023-05-02T20:14:20.679Z,35.30
2023-05-02T20:19:42.511Z,34.00
2023-05-02T20:25:04.797Z,36.40
2023-05-02T20:30:26.472Z,32.90
2023-05-02T20:35:55.849Z,31.30
2023-05-02T20:41:17.849Z,28.90
2023-05-02T20:46:39.806Z,32.90
2023-05-02T20:52:05.926Z,33.10
2023-05-02T20:57:27.854Z,39.60
2023-05-02T21:02:51.317Z,29.50
2023-05-02T21:08:13.022Z,28.00
2023-05-02T21:13:34.751Z,23.50
2023-05-02T21:18:56.782Z,28.40
2023-05-02T21:24:18.522Z,23.80
2023-05-02T21:29:40.542Z,27.30
2023-05-02T21:35:02.351Z,25.70
2023-05-02T21:40:24.504Z,20.00
2023-05-02T21:45:47.427Z,19.90
2023-05-02T21:51:11.585Z,20.20
2023-05-02T21:56:33.693Z,19.60
2023-05-02T22:01:56.288Z,22.80
2023-05-02T22:07:20.325Z,25.60
2023-05-02T22:12:42.073Z,27.10
2023-05-02T22:18:07.054Z,29.30
2023-05-02T22:23:31.114Z,27.30
2023-05-02T22:28:53.072Z,24.30
2023-05-02T22:34:14.977Z,22.10
2023-05-02T22:39:36.663Z,22.50
2023-05-02T22:44:58.395Z,20.80
2023-05-02T22:50:21.711Z,24.70
2023-05-02T22:55:43.514Z,20.70
2023-05-02T23:01:05.570Z,20.90
2023-05-02T23:06:28.876Z,20.50
2023-05-02T23:11:51.607Z,19.10
2023-05-02T23:17:13.556Z,17.10
2023-05-02T23:22:47.075Z,17.10
2023-05-02T23:28:08.871Z,15.60
2023-05-02T23:33:33.321Z,19.10
2023-05-02T23:38:55.356Z,17.50
2023-05-02T23:44:17.257Z,17.80
2023-05-02T23:49:40.572Z,17.60
2023-05-02T23:55:02.342Z,19.20
